Time;durP1;ratioP1;P1;durP2;ratioP2;P2;SDS_P1;SDS_P2;PMS_P1;PMS_P2;Temp;Humidity;BMP_temperature;BMP_pressure;BME280_temperature;BME280_humidity;BME280_pressure;Samples;Min_cycle;Max_cycle;Signal;HPM_P1;HPM_P2
2022/07/21 00:01:07;;;;;;;6.53;3.83;;;26.10;79.60;;;;;;5046304;28;20037;-71
2022/07/21 00:03:32;;;;;;;5.40;3.90;;;26.00;80.00;;;;;;5030814;28;20670;-71
2022/07/21 00:05:58;;;;;;;9.48;4.07;;;25.70;80.30;;;;;;5020998;28;20038;-72
2022/07/21 00:08:24;;;;;;;5.30;3.83;;;25.70;80.90;;;;;;5022027;28;20045;-71
2022/07/21 00:10:49;;;;;;;6.22;3.83;;;25.80;80.40;;;;;;5033784;28;20430;-71
2022/07/21 00:13:15;;;;;;;10.00;4.75;;;25.80;80.10;;;;;;5031470;28;20080;-71
2022/07/21 00:15:41;;;;;;;10.80;5.00;;;25.80;79.60;;;;;;5033074;28;20033;-71
2022/07/21 00:18:06;;;;;;;9.05;4.47;;;25.60;80.50;;;;;;5026933;28;20029;-71
2022/07/21 00:20:32;;;;;;;8.32;4.35;;;25.50;80.80;;;;;;5027523;28;20081;-71
2022/07/21 00:22:59;;;;;;;7.22;4.47;;;25.60;80.80;;;;;;5038165;28;20044;-71
2022/07/21 00:25:25;;;;;;;8.25;4.18;;;25.70;80.80;;;;;;5043991;28;20490;-71
2022/07/21 00:27:51;;;;;;;7.13;4.28;;;25.60;80.60;;;;;;5032212;28;20115;-71
2022/07/21 00:30:17;;;;;;;8.43;4.03;;;25.40;80.90;;;;;;5022936;28;20029;-71
2022/07/21 00:32:43;;;;;;;7.30;4.60;;;25.40;81.10;;;;;;5025805;28;20120;-71
2022/07/21 00:35:11;;;;;;;5.82;4.18;;;25.40;81.10;;;;;;5029037;28;20033;-71
2022/07/21 00:37:37;;;;;;;7.13;4.03;;;25.40;81.20;;;;;;5033017;28;20033;-71
2022/07/21 00:40:05;;;;;;;8.82;4.57;;;25.30;81.40;;;;;;5030685;28;20095;-71
2022/07/21 00:42:32;;;;;;;12.35;3.97;;;25.30;81.50;;;;;;5032624;28;20026;-71
2022/07/21 00:44:58;;;;;;;6.65;4.20;;;25.20;81.60;;;;;;5027196;28;20491;-71
2022/07/21 00:47:29;;;;;;;9.57;4.97;;;25.20;81.70;;;;;;5028961;28;20130;-72
2022/07/21 00:49:58;;;;;;;10.30;5.07;;;25.20;81.80;;;;;;5021761;28;20057;-71
2022/07/21 00:52:24;;;;;;;6.20;4.10;;;25.10;81.80;;;;;;5025231;28;20071;-71
2022/07/21 00:54:50;;;;;;;9.45;4.13;;;25.20;81.80;;;;;;5029265;28;20033;-71
2022/07/21 00:57:16;;;;;;;7.05;4.50;;;25.20;81.90;;;;;;5032344;28;20033;-71
2022/07/21 00:59:43;;;;;;;11.35;4.50;;;25.20;81.80;;;;;;5029392;28;20030;-71
2022/07/21 01:02:09;;;;;;;8.38;4.00;;;25.20;82.00;;;;;;5033199;28;20491;-71
2022/07/21 01:04:35;;;;;;;13.48;4.65;;;25.20;82.10;;;;;;5026486;28;20107;-71
2022/07/21 01:07:03;;;;;;;7.20;4.30;;;25.20;82.00;;;;;;5020615;28;20033;-71
2022/07/21 01:09:30;;;;;;;6.32;4.10;;;25.20;82.10;;;;;;5027761;28;20116;-71
2022/07/21 01:11:56;;;;;;;10.27;4.32;;;25.20;82.10;;;;;;5027111;28;20554;-71
2022/07/21 01:14:22;;;;;;;8.02;4.65;;;25.00;82.20;;;;;;5039530;28;20483;-71
2022/07/21 01:16:48;;;;;;;8.02;4.20;;;25.00;82.30;;;;;;5031886;28;20029;-71
2022/07/21 01:19:14;;;;;;;6.45;4.10;;;25.10;82.00;;;;;;5018785;28;20544;-72
2022/07/21 01:21:43;;;;;;;8.38;4.90;;;25.10;82.20;;;;;;5029371;28;20132;-71
2022/07/21 01:24:09;;;;;;;6.22;4.10;;;25.10;82.10;;;;;;5025976;28;20029;-71
2022/07/21 01:26:41;;;;;;;9.30;4.22;;;25.10;81.90;;;;;;5030713;28;20078;-71
2022/07/21 01:29:08;;;;;;;7.95;5.07;;;25.20;81.60;;;;;;5015048;28;20034;-71
2022/07/21 01:31:34;;;;;;;10.45;4.20;;;25.10;81.90;;;;;;5024927;28;20083;-71
2022/07/21 01:34:00;;;;;;;6.43;4.18;;;24.90;82.20;;;;;;5021698;28;20061;-71
2022/07/21 01:36:25;;;;;;;7.60;4.65;;;25.20;81.80;;;;;;5029063;28;20022;-71
2022/07/21 01:41:35;;;;;;;8.48;4.22;;;24.80;82.50;;;;;;5030576;28;20083;-71
2022/07/21 01:44:05;;;;;;;10.32;4.15;;;24.60;83.00;;;;;;5021902;28;20407;-71
2022/07/21 01:46:33;;;;;;;6.28;4.35;;;24.60;83.20;;;;;;5029531;28;20549;-71
2022/07/21 01:48:59;;;;;;;8.68;4.93;;;24.60;83.40;;;;;;5015377;28;20037;-72
2022/07/21 01:51:25;;;;;;;6.32;4.07;;;24.60;83.60;;;;;;5020543;28;20048;-72
2022/07/21 01:53:52;;;;;;;9.65;4.20;;;24.60;83.70;;;;;;5030110;28;20112;-71
2022/07/21 01:56:23;;;;;;;8.00;4.50;;;24.50;83.80;;;;;;5027316;28;20032;-71
2022/07/21 01:58:51;;;;;;;6.38;4.68;;;24.60;83.80;;;;;;5023063;28;20034;-72
2022/07/21 02:01:18;;;;;;;9.13;4.72;;;24.50;83.80;;;;;;5024485;28;20030;-72
2022/07/21 02:03:45;;;;;;;8.15;5.00;;;24.50;84.00;;;;;;5029256;28;20030;-71
2022/07/21 02:06:11;;;;;;;7.65;4.75;;;24.50;84.10;;;;;;5027083;28;20414;-71
2022/07/21 02:08:37;;;;;;;7.13;4.60;;;24.50;84.10;;;;;;5026165;28;20025;-72
2022/07/21 02:11:04;;;;;;;7.88;4.50;;;24.50;84.00;;;;;;5032666;28;20730;-71
2022/07/21 02:13:30;;;;;;;9.25;5.70;;;24.50;84.00;;;;;;5025450;28;20026;-72
2022/07/21 02:15:56;;;;;;;9.80;5.15;;;24.50;84.00;;;;;;5036262;28;20112;-72
2022/07/21 02:18:22;;;;;;;5.78;4.28;;;24.40;84.00;;;;;;5029951;28;20108;-71
2022/07/21 02:20:48;;;;;;;9.05;4.95;;;24.40;84.10;;;;;;5027035;28;20041;-71
2022/07/21 02:23:14;;;;;;;8.13;4.93;;;24.40;84.20;;;;;;5025855;28;20037;-71
2022/07/21 02:25:40;;;;;;;6.80;4.93;;;24.40;84.30;;;;;;5026420;28;20029;-71
2022/07/21 02:28:06;;;;;;;6.60;4.63;;;24.40;84.50;;;;;;5025340;28;20032;-71
2022/07/21 02:30:32;;;;;;;9.73;4.78;;;24.30;84.30;;;;;;5022884;28;20045;-71
2022/07/21 02:32:57;;;;;;;7.03;4.90;;;24.60;83.80;;;;;;5021280;28;20615;-71
2022/07/21 02:35:23;;;;;;;9.10;4.38;;;24.50;84.10;;;;;;5022219;28;20082;-71
2022/07/21 02:37:49;;;;;;;7.45;4.88;;;24.50;83.80;;;;;;5023254;28;20064;-71
2022/07/21 02:40:15;;;;;;;9.90;5.22;;;24.50;83.80;;;;;;5038541;28;20159;-72
2022/07/21 02:42:40;;;;;;;8.93;4.97;;;24.70;83.10;;;;;;5034069;28;20026;-71
2022/07/21 02:45:08;;;;;;;9.30;5.35;;;24.70;83.30;;;;;;5041126;28;20055;-71
2022/07/21 02:47:55;;;;;;;7.63;5.10;;;24.90;82.90;;;;;;5021612;28;20107;-72
2022/07/21 02:50:23;;;;;;;8.30;4.47;;;24.90;82.40;;;;;;5028672;28;20052;-71
2022/07/21 02:52:49;;;;;;;8.60;4.65;;;24.80;82.70;;;;;;5028333;28;20033;-71
2022/07/21 02:55:16;;;;;;;12.27;5.45;;;24.80;83.00;;;;;;5024557;28;20479;-71
2022/07/21 02:57:41;;;;;;;7.22;5.43;;;24.60;83.50;;;;;;5027875;28;20112;-71
2022/07/21 03:00:09;;;;;;;10.00;5.72;;;24.50;83.80;;;;;;5028965;28;20524;-71
2022/07/21 03:02:35;;;;;;;8.07;5.40;;;24.30;84.00;;;;;;5019761;28;20029;-69
2022/07/21 03:05:02;;;;;;;10.52;5.25;;;24.00;85.10;;;;;;5018204;28;20041;-70
2022/07/21 03:07:27;;;;;;;9.60;5.80;;;24.10;84.80;;;;;;5026354;28;20033;-69
2022/07/21 03:09:53;;;;;;;6.72;4.88;;;24.20;84.70;;;;;;5024792;28;20091;-70
2022/07/21 03:12:19;;;;;;;7.03;4.90;;;24.10;84.90;;;;;;5024473;28;20041;-70
2022/07/21 03:14:44;;;;;;;8.90;5.05;;;24.10;85.00;;;;;;5024725;28;20047;-70
2022/07/21 03:17:10;;;;;;;12.65;6.57;;;24.00;85.20;;;;;;5022734;28;20605;-70
2022/07/21 03:19:36;;;;;;;6.85;5.15;;;24.10;85.00;;;;;;5024056;28;20026;-70
2022/07/21 03:22:02;;;;;;;6.93;5.18;;;23.90;85.10;;;;;;5014674;28;20038;-70
2022/07/21 03:24:29;;;;;;;6.22;4.18;;;23.80;85.50;;;;;;5021194;28;20056;-70
2022/07/21 03:26:55;;;;;;;10.32;6.10;;;24.00;85.00;;;;;;5018378;28;20109;-70
2022/07/21 03:29:21;;;;;;;7.85;5.70;;;24.00;85.10;;;;;;5019848;28;20030;-70
2022/07/21 03:31:46;;;;;;;9.35;5.40;;;24.00;85.10;;;;;;5027543;28;20033;-70
2022/07/21 03:34:12;;;;;;;9.85;5.63;;;24.00;85.20;;;;;;5019219;28;20042;-69
2022/07/21 03:36:38;;;;;;;8.23;5.38;;;23.90;85.30;;;;;;5015471;28;20029;-70
2022/07/21 03:39:04;;;;;;;9.35;5.65;;;23.90;85.30;;;;;;5017865;28;20624;-69
2022/07/21 03:41:29;;;;;;;9.80;5.97;;;24.00;85.00;;;;;;5015066;28;20477;-71
2022/07/21 03:43:55;;;;;;;9.15;6.00;;;23.90;85.30;;;;;;5017622;28;20034;-71
2022/07/21 03:46:20;;;;;;;12.52;6.30;;;23.90;85.50;;;;;;5019280;28;20049;-70
2022/07/21 03:48:46;;;;;;;9.23;5.38;;;23.80;85.70;;;;;;5017969;28;21085;-70
2022/07/21 03:51:12;;;;;;;10.77;5.75;;;23.60;86.10;;;;;;5021275;28;20095;-70
2022/07/21 03:53:38;;;;;;;8.88;5.25;;;23.50;86.40;;;;;;5032413;28;20033;-70
2022/07/21 03:56:04;;;;;;;11.63;5.20;;;23.50;86.70;;;;;;5015791;28;20092;-70
2022/07/21 03:58:29;;;;;;;10.27;5.97;;;23.50;86.30;;;;;;5019855;28;20159;-70
2022/07/21 04:00:55;;;;;;;7.13;4.85;;;23.70;85.90;;;;;;5015376;28;20030;-70
2022/07/21 04:03:20;;;;;;;8.90;5.55;;;23.90;85.80;;;;;;5018407;28;20030;-70
2022/07/21 04:05:46;;;;;;;9.23;5.13;;;23.70;86.10;;;;;;5011303;28;20064;-70
2022/07/21 04:08:13;;;;;;;6.97;5.38;;;23.50;86.50;;;;;;5019694;28;20036;-70
2022/07/21 04:10:40;;;;;;;8.30;5.28;;;23.60;86.60;;;;;;5008669;28;20072;-69
2022/07/21 04:13:09;;;;;;;10.10;5.68;;;23.50;86.50;;;;;;5017125;28;20112;-69
2022/07/21 04:15:36;;;;;;;9.10;4.97;;;23.50;86.60;;;;;;5015997;28;20032;-70
2022/07/21 04:18:02;;;;;;;8.23;5.53;;;23.60;86.50;;;;;;5009604;28;20120;-70
2022/07/21 04:20:28;;;;;;;6.45;4.57;;;23.40;87.00;;;;;;5016703;28;20081;-70
2022/07/21 04:22:54;;;;;;;9.45;6.28;;;23.30;87.40;;;;;;5019566;28;20099;-70
2022/07/21 04:25:20;;;;;;;9.05;5.82;;;23.40;87.20;;;;;;5019170;28;20556;-70
2022/07/21 04:27:47;;;;;;;9.52;6.03;;;23.50;86.60;;;;;;5021874;28;20083;-70
2022/07/21 04:30:19;;;;;;;8.63;5.68;;;23.70;86.50;;;;;;5014554;28;20033;-70
2022/07/21 04:32:45;;;;;;;9.57;5.65;;;23.80;86.30;;;;;;5025990;28;20025;-71
2022/07/21 04:35:11;;;;;;;7.00;5.47;;;23.70;86.20;;;;;;5021567;28;20468;-69
2022/07/21 04:37:37;;;;;;;9.68;6.38;;;23.80;86.50;;;;;;5022028;28;20033;-70
2022/07/21 04:40:05;;;;;;;7.60;5.13;;;23.80;86.50;;;;;;5023390;28;20298;-70
2022/07/21 04:42:31;;;;;;;10.57;5.65;;;23.70;86.60;;;;;;5025297;28;20032;-70
2022/07/21 04:44:57;;;;;;;8.65;5.45;;;23.70;86.90;;;;;;5023983;28;20030;-69
2022/07/21 04:47:23;;;;;;;7.55;4.90;;;23.70;86.90;;;;;;5020817;28;20034;-70
2022/07/21 04:49:49;;;;;;;10.02;6.28;;;23.60;87.30;;;;;;5025121;28;20618;-71
2022/07/21 04:52:15;;;;;;;11.73;5.70;;;23.60;87.30;;;;;;5023902;28;20041;-69
2022/07/21 04:54:40;;;;;;;9.63;6.30;;;23.70;86.90;;;;;;5025160;28;21399;-70
2022/07/21 04:57:06;;;;;;;11.48;5.60;;;23.80;86.80;;;;;;5020469;28;20044;-70
2022/07/21 04:59:33;;;;;;;11.27;6.07;;;23.80;86.80;;;;;;5017348;28;20036;-70
2022/07/21 05:01:59;;;;;;;10.45;6.07;;;23.90;86.70;;;;;;5018339;28;20056;-70
2022/07/21 05:04:25;;;;;;;7.80;5.30;;;24.10;86.10;;;;;;5022503;28;20038;-70
2022/07/21 05:06:51;;;;;;;7.78;5.10;;;24.10;86.60;;;;;;5025028;28;20044;-70
2022/07/21 05:09:17;;;;;;;8.57;5.18;;;23.90;87.10;;;;;;5027159;28;20029;-70
2022/07/21 05:11:42;;;;;;;7.70;5.78;;;23.90;87.60;;;;;;5025377;28;20033;-70
2022/07/21 05:14:08;;;;;;;7.95;5.57;;;24.00;87.40;;;;;;5026915;28;20029;-70
2022/07/21 05:16:34;;;;;;;10.50;6.22;;;24.00;87.80;;;;;;5023235;28;20032;-70
2022/07/21 05:19:00;;;;;;;8.75;5.60;;;24.00;87.10;;;;;;5026286;28;20422;-70
2022/07/21 05:21:26;;;;;;;9.57;6.07;;;24.20;86.50;;;;;;5022407;28;20202;-71
2022/07/21 05:23:51;;;;;;;8.25;5.75;;;24.20;86.30;;;;;;5026589;28;20543;-70
2022/07/21 05:26:17;;;;;;;10.25;5.93;;;24.30;86.30;;;;;;5014850;28;20128;-70
2022/07/21 05:28:43;;;;;;;8.77;6.30;;;24.50;85.70;;;;;;5020794;28;20048;-70
2022/07/21 05:31:09;;;;;;;8.68;5.55;;;24.60;85.30;;;;;;5017807;28;20404;-71
2022/07/21 05:33:36;;;;;;;8.27;5.75;;;24.60;85.30;;;;;;5026827;28;20160;-72
2022/07/21 05:36:02;;;;;;;13.15;5.30;;;24.70;85.30;;;;;;5023137;28;20648;-70
2022/07/21 05:38:28;;;;;;;10.73;6.60;;;24.70;86.70;;;;;;5017651;28;20519;-71
2022/07/21 05:40:54;;;;;;;7.53;5.38;;;24.70;87.00;;;;;;5027877;28;20026;-69
2022/07/21 05:43:20;;;;;;;9.68;5.63;;;24.50;87.40;;;;;;5028586;28;20486;-71
2022/07/21 05:45:45;;;;;;;8.02;5.43;;;24.50;87.90;;;;;;5018529;28;20467;-70
2022/07/21 05:48:11;;;;;;;8.40;5.30;;;24.50;87.70;;;;;;5018808;28;20034;-71
2022/07/21 05:50:37;;;;;;;9.23;5.40;;;24.50;88.60;;;;;;5020345;28;20060;-72
2022/07/21 05:53:02;;;;;;;8.75;5.10;;;24.40;88.70;;;;;;5021184;28;20104;-72
2022/07/21 05:55:28;;;;;;;8.43;5.72;;;24.20;88.50;;;;;;5018240;28;20025;-72
2022/07/21 05:57:54;;;;;;;10.45;5.80;;;24.20;89.00;;;;;;5019098;28;20451;-72
2022/07/21 06:00:19;;;;;;;7.80;5.32;;;24.40;89.20;;;;;;5013314;28;20117;-72
2022/07/21 06:02:45;;;;;;;9.27;6.10;;;24.40;90.00;;;;;;5020304;28;20092;-72
2022/07/21 06:05:11;;;;;;;7.38;5.18;;;24.40;90.20;;;;;;5029263;28;20047;-72
2022/07/21 06:07:38;;;;;;;9.23;5.43;;;24.50;89.60;;;;;;5023214;28;20053;-72
2022/07/21 06:10:04;;;;;;;8.55;5.40;;;24.60;88.60;;;;;;5023463;28;20068;-72
2022/07/21 06:12:30;;;;;;;7.53;5.65;;;24.60;89.10;;;;;;5020104;28;20061;-72
2022/07/21 06:14:56;;;;;;;8.02;5.55;;;24.60;90.10;;;;;;5022201;28;20037;-71
2022/07/21 06:17:22;;;;;;;9.75;5.97;;;24.70;90.20;;;;;;5023857;28;20041;-72
2022/07/21 06:19:48;;;;;;;8.45;5.60;;;24.70;90.10;;;;;;5021730;28;20029;-72
2022/07/21 06:22:13;;;;;;;9.55;5.45;;;24.80;90.00;;;;;;5023281;28;20103;-72
2022/07/21 06:24:39;;;;;;;10.82;5.32;;;24.90;90.10;;;;;;5014037;28;20765;-72
2022/07/21 06:27:05;;;;;;;12.07;6.93;;;25.00;89.30;;;;;;5018998;28;20043;-72
2022/07/21 06:29:30;;;;;;;14.20;5.70;;;25.10;89.40;;;;;;5022077;28;20033;-72
2022/07/21 06:31:56;;;;;;;8.13;6.00;;;25.20;89.60;;;;;;5016674;28;20414;-71
2022/07/21 06:34:22;;;;;;;11.88;6.40;;;25.30;89.00;;;;;;5018095;28;20424;-72
2022/07/21 06:36:47;;;;;;;8.18;6.22;;;25.30;89.00;;;;;;5017797;28;20029;-71
2022/07/21 06:39:13;;;;;;;12.88;6.97;;;25.30;88.10;;;;;;5011144;28;20073;-71
2022/07/21 06:41:39;;;;;;;9.02;5.90;;;25.30;88.70;;;;;;5018450;28;20641;-71
2022/07/21 06:44:05;;;;;;;13.70;7.00;;;25.40;87.80;;;;;;5013093;28;20026;-70
2022/07/21 06:46:35;;;;;;;15.10;6.57;;;25.30;89.00;;;;;;5006741;28;20041;-71
2022/07/21 06:49:01;;;;;;;23.63;6.47;;;25.40;88.80;;;;;;5014382;28;20671;-71
2022/07/21 06:51:27;;;;;;;17.23;6.85;;;25.50;87.60;;;;;;5018985;28;20068;-71
2022/07/21 06:53:53;;;;;;;13.32;6.72;;;25.60;87.50;;;;;;5011986;28;20119;-71
2022/07/21 06:56:19;;;;;;;11.57;6.25;;;25.70;86.50;;;;;;5018450;28;20456;-71
2022/07/21 06:58:45;;;;;;;13.57;6.50;;;25.90;86.00;;;;;;5011728;28;20029;-71
2022/07/21 07:01:13;;;;;;;10.95;5.82;;;26.00;86.00;;;;;;5021187;28;20870;-71
2022/07/21 07:03:39;;;;;;;9.23;5.78;;;26.20;85.70;;;;;;5015893;28;20460;-70
2022/07/21 07:06:05;;;;;;;12.60;6.00;;;26.30;84.50;;;;;;5014723;28;20104;-71
2022/07/21 07:08:32;;;;;;;9.32;5.88;;;26.50;84.00;;;;;;5016484;28;20360;-71
2022/07/21 07:10:58;;;;;;;11.50;6.88;;;26.60;83.80;;;;;;5012309;28;20038;-71
2022/07/21 07:13:24;;;;;;;11.40;6.25;;;26.70;83.30;;;;;;5013861;28;20041;-71
2022/07/21 07:15:49;;;;;;;14.20;6.97;;;26.90;83.30;;;;;;5017622;28;20041;-71
2022/07/21 07:18:15;;;;;;;41.50;9.27;;;27.20;82.90;;;;;;5021062;28;20083;-71
2022/07/21 07:20:41;;;;;;;8.82;6.15;;;27.50;82.90;;;;;;5015093;28;20475;-70
2022/07/21 07:23:07;;;;;;;10.18;5.78;;;27.70;82.70;;;;;;5018689;28;20064;-71
2022/07/21 07:25:33;;;;;;;8.70;5.95;;;27.70;82.30;;;;;;5021104;28;20613;-71
2022/07/21 07:28:00;;;;;;;14.95;7.15;;;27.90;83.00;;;;;;5019204;28;20041;-71
2022/07/21 07:30:26;;;;;;;12.00;6.38;;;28.20;82.00;;;;;;5018918;28;20605;-71
2022/07/21 07:32:51;;;;;;;11.77;6.78;;;28.90;80.80;;;;;;5021014;28;20049;-71
2022/07/21 07:35:17;;;;;;;9.90;6.35;;;29.90;79.80;;;;;;5023098;28;20452;-71
2022/07/21 07:37:45;;;;;;;8.20;5.97;;;30.60;79.10;;;;;;5021919;28;20041;-71
2022/07/21 07:40:14;;;;;;;32.08;7.35;;;31.40;76.80;;;;;;5019329;28;20037;-71
2022/07/21 07:42:40;;;;;;;17.60;6.85;;;32.10;76.10;;;;;;5022798;28;20363;-71
2022/07/21 07:45:07;;;;;;;55.58;10.15;;;32.60;74.20;;;;;;5014365;28;20033;-71
2022/07/21 07:47:33;;;;;;;27.98;6.65;;;33.00;74.20;;;;;;5020485;28;20026;-71
2022/07/21 07:49:59;;;;;;;18.40;7.05;;;32.90;74.30;;;;;;5019470;28;20033;-71
2022/07/21 07:52:25;;;;;;;12.70;6.55;;;33.10;73.50;;;;;;5021874;28;20092;-71
2022/07/21 07:54:51;;;;;;;9.65;6.43;;;33.30;73.10;;;;;;5013838;28;20029;-71
2022/07/21 07:57:17;;;;;;;11.40;6.68;;;33.50;73.70;;;;;;5027474;28;20095;-71
2022/07/21 07:59:43;;;;;;;55.45;9.07;;;33.40;73.40;;;;;;5028681;28;20029;-71
2022/07/21 08:02:09;;;;;;;14.43;6.75;;;33.60;73.00;;;;;;5013469;28;20021;-71
2022/07/21 08:04:35;;;;;;;9.05;7.18;;;33.90;73.90;;;;;;5015806;28;20237;-71
2022/07/21 08:07:01;;;;;;;14.98;6.28;;;33.20;72.80;;;;;;5017514;28;20099;-71
2022/07/21 08:09:27;;;;;;;10.32;6.93;;;33.50;73.60;;;;;;5025577;28;20160;-72
2022/07/21 08:11:53;;;;;;;8.18;6.22;;;33.20;74.40;;;;;;5018406;28;20504;-72
2022/07/21 08:14:19;;;;;;;11.60;6.13;;;32.70;74.80;;;;;;5020817;28;20025;-72
2022/07/21 08:16:45;;;;;;;12.88;6.93;;;32.40;75.20;;;;;;5043118;28;20040;-72
2022/07/21 08:19:11;;;;;;;12.23;6.50;;;32.20;75.50;;;;;;5026252;28;20059;-71
2022/07/21 08:21:37;;;;;;;17.00;6.88;;;31.50;76.60;;;;;;5022420;28;20578;-71
2022/07/21 08:24:03;;;;;;;10.45;6.57;;;31.00;76.40;;;;;;5022894;28;20036;-71
2022/07/21 08:26:29;;;;;;;12.35;6.72;;;31.00;76.40;;;;;;5022765;28;20059;-71
2022/07/21 08:28:56;;;;;;;23.42;6.95;;;31.10;77.00;;;;;;5015146;28;20087;-71
2022/07/21 08:31:22;;;;;;;16.25;6.75;;;31.10;77.20;;;;;;5019827;28;20068;-71
2022/07/21 08:33:48;;;;;;;8.77;6.75;;;30.90;76.70;;;;;;5028651;28;20029;-71
2022/07/21 08:36:13;;;;;;;8.95;6.40;;;31.10;76.50;;;;;;5022403;28;20056;-71
2022/07/21 08:38:39;;;;;;;7.70;6.00;;;31.20;75.90;;;;;;5025571;28;20033;-71
2022/07/21 08:41:08;;;;;;;10.25;6.80;;;31.10;75.80;;;;;;5026801;28;20405;-71
2022/07/21 08:43:34;;;;;;;9.32;6.57;;;30.90;76.30;;;;;;5018348;28;20026;-71
2022/07/21 08:46:00;;;;;;;9.57;6.53;;;30.90;76.70;;;;;;5019065;28;20501;-72
2022/07/21 08:48:29;;;;;;;10.52;6.22;;;30.60;75.90;;;;;;5026264;28;20034;-71
2022/07/21 08:50:55;;;;;;;8.02;6.65;;;30.90;76.60;;;;;;5020486;28;20483;-71
2022/07/21 08:53:21;;;;;;;8.63;6.75;;;30.90;77.20;;;;;;5026439;28;20025;-71
2022/07/21 08:55:47;;;;;;;11.75;6.22;;;30.70;76.00;;;;;;5018359;28;20037;-71
2022/07/21 08:58:13;;;;;;;8.20;5.68;;;30.70;76.00;;;;;;5026102;28;20029;-71
2022/07/21 09:00:42;;;;;;;11.68;6.18;;;30.90;76.00;;;;;;5029593;28;20100;-71
2022/07/21 09:03:19;;;;;;;9.88;5.95;;;30.70;76.30;;;;;;5020885;28;20029;-71
2022/07/21 09:06:04;;;;;;;8.82;5.65;;;30.80;74.70;;;;;;5021257;28;20417;-71
2022/07/21 09:08:51;;;;;;;10.88;5.90;;;31.10;75.90;;;;;;5019411;28;20480;-71
2022/07/21 09:11:24;;;;;;;10.95;6.35;;;31.30;75.40;;;;;;5021630;28;20042;-71
2022/07/21 09:14:12;;;;;;;10.50;5.90;;;31.40;75.50;;;;;;5024839;28;20036;-71
2022/07/21 09:16:38;;;;;;;7.80;5.35;;;31.60;75.50;;;;;;5022769;28;20053;-71
2022/07/21 09:19:05;;;;;;;9.20;6.38;;;32.00;75.10;;;;;;5021104;28;20041;-71
2022/07/21 09:21:32;;;;;;;9.55;6.60;;;32.10;75.20;;;;;;5019778;28;20735;-71
2022/07/21 09:24:11;;;;;;;8.85;6.25;;;31.90;74.70;;;;;;5020752;28;20021;-71
2022/07/21 09:27:07;;;;;;;8.40;5.68;;;32.00;74.80;;;;;;5023241;28;20061;-71
2022/07/21 09:29:36;;;;;;;10.60;5.85;;;32.10;75.50;;;;;;5022604;28;20069;-72
2022/07/21 09:32:37;;;;;;;12.57;5.82;;;32.00;74.70;;;;;;5012623;28;20056;-72
2022/07/21 09:35:05;;;;;;;7.75;5.85;;;32.20;74.80;;;;;;5015004;28;20199;-72
2022/07/21 09:37:31;;;;;;;10.98;5.72;;;32.30;75.00;;;;;;5023784;28;20473;-72
2022/07/21 09:40:00;;;;;;;8.60;5.45;;;32.40;74.00;;;;;;5020970;28;20115;-72
2022/07/21 09:42:33;;;;;;;9.10;6.00;;;32.30;73.50;;;;;;5025891;28;20371;-72
2022/07/21 09:45:03;;;;;;;11.25;5.93;;;32.70;74.80;;;;;;5014221;28;20033;-72
2022/07/21 09:47:30;;;;;;;8.70;5.57;;;32.90;74.10;;;;;;5018691;28;20068;-72
2022/07/21 09:49:57;;;;;;;8.07;5.35;;;32.80;73.80;;;;;;5023758;28;20087;-72
2022/07/21 09:52:40;;;;;;;8.43;5.07;;;33.00;72.90;;;;;;5018340;28;20096;-72
2022/07/21 09:55:14;;;;;;;9.10;5.80;;;33.10;73.20;;;;;;5014964;28;20044;-72
2022/07/21 09:57:41;;;;;;;6.35;4.72;;;33.10;72.20;;;;;;5012699;28;20029;-72
2022/07/21 10:00:14;;;;;;;11.23;5.15;;;32.70;71.20;;;;;;5012721;28;20037;-72
2022/07/21 10:02:42;;;;;;;7.72;5.22;;;32.80;71.50;;;;;;5016217;28;20057;-72
2022/07/21 10:05:16;;;;;;;9.02;5.45;;;32.70;71.40;;;;;;5018186;28;20066;-71
2022/07/21 10:07:44;;;;;;;7.18;4.85;;;32.70;72.00;;;;;;5016820;28;20419;-72
2022/07/21 10:10:11;;;;;;;6.78;5.40;;;33.10;72.50;;;;;;5015831;28;20033;-72
2022/07/21 10:12:37;;;;;;;9.07;5.53;;;33.50;71.90;;;;;;5018789;28;20041;-72
2022/07/21 10:15:04;;;;;;;9.02;5.30;;;33.50;71.60;;;;;;5021360;28;20029;-72
2022/07/21 10:17:29;;;;;;;8.52;4.70;;;33.90;71.70;;;;;;5016074;28;20030;-72
2022/07/21 10:20:08;;;;;;;6.75;4.63;;;34.10;71.10;;;;;;5008820;28;20030;-72
2022/07/21 10:23:08;;;;;;;8.43;4.53;;;34.10;69.70;;;;;;5014623;28;20499;-72
2022/07/21 10:25:34;;;;;;;9.05;5.60;;;33.80;70.70;;;;;;5011393;28;20037;-72
2022/07/21 10:28:14;;;;;;;9.30;5.07;;;33.80;72.20;;;;;;5021031;28;20646;-72
2022/07/21 10:30:45;;;;;;;8.95;4.57;;;34.10;72.60;;;;;;5019791;28;20034;-72
2022/07/21 10:33:13;;;;;;;8.95;5.18;;;33.90;71.20;;;;;;5023211;28;21004;-72
2022/07/21 10:35:43;;;;;;;71.60;7.82;;;34.20;71.20;;;;;;5023240;28;20053;-73
2022/07/21 10:38:25;;;;;;;11.82;4.30;;;34.60;71.60;;;;;;5015190;28;20104;-72
2022/07/21 10:40:51;;;;;;;11.15;4.72;;;34.60;71.40;;;;;;5021484;28;20037;-72
2022/07/21 10:43:17;;;;;;;8.13;4.07;;;34.50;71.50;;;;;;5017123;28;20025;-72
2022/07/21 10:45:43;;;;;;;8.88;4.50;;;34.60;69.60;;;;;;5018510;28;20026;-72
2022/07/21 10:48:38;;;;;;;6.47;3.70;;;34.60;70.90;;;;;;5025462;28;20025;-72
2022/07/21 10:51:06;;;;;;;8.52;4.43;;;35.00;67.50;;;;;;5025481;28;20037;-72
2022/07/21 10:53:34;;;;;;;4.55;3.30;;;35.00;67.50;;;;;;5022772;28;20061;-72
2022/07/21 10:55:59;;;;;;;9.32;4.10;;;35.10;67.00;;;;;;5023661;28;20040;-71
2022/07/21 10:58:27;;;;;;;16.02;4.80;;;35.30;66.70;;;;;;5033467;28;20034;-72
2022/07/21 11:00:55;;;;;;;6.20;3.17;;;35.30;66.30;;;;;;5015551;28;20036;-72
2022/07/21 11:03:26;;;;;;;7.00;3.92;;;35.20;66.50;;;;;;5026188;28;20101;-74
2022/07/21 11:06:22;;;;;;;12.95;3.83;;;35.10;66.50;;;;;;5022630;28;20037;-73
2022/07/21 11:08:52;;;;;;;17.13;4.65;;;35.10;66.50;;;;;;5017032;28;20033;-72
2022/07/21 11:11:25;;;;;;;10.57;4.15;;;35.20;66.80;;;;;;5015287;28;20033;-73
2022/07/21 11:14:10;;;;;;;18.20;5.30;;;35.10;67.00;;;;;;5010336;28;20394;-73
2022/07/21 11:16:46;;;;;;;8.95;4.47;;;35.10;67.00;;;;;;5013658;28;20067;-73
2022/07/21 11:19:45;;;;;;;7.78;3.35;;;35.60;66.60;;;;;;5013507;28;20029;-73
2022/07/21 11:22:28;;;;;;;11.68;4.30;;;35.50;66.50;;;;;;5023480;28;20144;-73
2022/07/21 11:25:13;;;;;;;13.50;3.78;;;35.80;66.20;;;;;;5017141;28;20034;-73
2022/07/21 11:27:39;;;;;;;6.80;4.22;;;35.70;66.70;;;;;;5020334;28;20044;-73
2022/07/21 11:30:10;;;;;;;9.20;3.83;;;36.00;66.80;;;;;;5019120;28;20031;-73
2022/07/21 11:32:36;;;;;;;9.73;3.80;;;35.70;65.90;;;;;;5021782;28;20487;-73
2022/07/21 11:35:06;;;;;;;8.30;3.80;;;35.80;65.90;;;;;;5019303;28;20033;-73
2022/07/21 11:37:44;;;;;;;7.32;3.70;;;36.10;65.90;;;;;;5018130;28;20022;-73
2022/07/21 11:40:18;;;;;;;9.13;3.75;;;36.20;65.70;;;;;;5014723;28;20044;-73
2022/07/21 11:42:46;;;;;;;12.45;4.38;;;36.30;65.60;;;;;;5012812;28;20121;-73
2022/07/21 11:45:13;;;;;;;8.40;3.97;;;36.50;64.80;;;;;;5018873;28;20035;-73
2022/07/21 11:47:40;;;;;;;24.80;4.60;;;36.40;64.40;;;;;;5015952;28;20442;-73
2022/07/21 11:50:12;;;;;;;8.82;4.60;;;36.10;64.80;;;;;;5016485;28;20621;-73
2022/07/21 11:52:39;;;;;;;30.73;4.47;;;36.40;64.30;;;;;;5014092;28;20042;-73
2022/07/21 11:55:08;;;;;;;7.72;3.83;;;36.30;64.40;;;;;;5020278;28;20053;-72
2022/07/21 11:57:34;;;;;;;8.13;4.07;;;36.50;64.30;;;;;;5013271;28;20847;-73
2022/07/21 12:00:00;;;;;;;7.10;3.85;;;36.70;65.40;;;;;;5013373;28;20149;-73
2022/07/21 12:02:29;;;;;;;7.40;4.38;;;37.00;64.40;;;;;;5015997;28;20037;-73
2022/07/21 12:05:03;;;;;;;5.63;3.83;;;37.10;64.10;;;;;;5021906;28;20116;-73
2022/07/21 12:07:36;;;;;;;8.15;4.65;;;37.30;64.30;;;;;;5016645;28;20049;-73
2022/07/21 12:10:07;;;;;;;8.38;4.60;;;37.20;64.40;;;;;;5013794;28;20022;-72
2022/07/21 12:12:41;;;;;;;12.85;4.65;;;37.30;63.90;;;;;;5021787;28;20034;-72
2022/07/21 12:15:14;;;;;;;10.93;5.07;;;37.00;63.50;;;;;;5026603;28;20030;-73
2022/07/21 12:17:49;;;;;;;;;;;37.00;64.20;;;;;;5020390;28;20081;-73
2022/07/21 12:20:26;;;;;;;8.38;3.80;;;37.30;63.60;;;;;;5024364;28;19924;-74
2022/07/21 12:22:53;;;;;;;7.68;3.97;;;37.50;63.60;;;;;;5026654;28;20037;-73
2022/07/21 12:25:34;;;;;;;8.20;4.10;;;37.60;63.60;;;;;;5019835;28;20594;-74
2022/07/21 12:28:01;;;;;;;9.23;5.45;;;37.40;63.10;;;;;;5022914;28;21037;-74
2022/07/21 12:30:36;;;;;;;10.45;5.05;;;37.10;63.30;;;;;;5025757;28;20025;-75
2022/07/21 12:33:09;;;;;;;6.90;4.85;;;37.50;63.20;;;;;;5038892;28;20116;-74
2022/07/21 12:35:40;;;;;;;9.68;4.88;;;37.50;62.40;;;;;;5017397;28;20029;-74
2022/07/21 12:38:09;;;;;;;7.03;4.05;;;37.20;62.80;;;;;;5020520;28;20052;-75
2022/07/21 12:40:41;;;;;;;9.55;4.32;;;37.20;63.90;;;;;;5010170;28;20495;-74
2022/07/21 12:43:08;;;;;;;9.95;4.65;;;37.60;63.10;;;;;;5020177;28;20025;-74
2022/07/21 12:46:04;;;;;;;10.23;4.82;;;37.40;62.90;;;;;;5026517;28;20605;-74
2022/07/21 12:48:35;;;;;;;8.48;4.35;;;37.60;63.00;;;;;;5019968;28;20492;-74
2022/07/21 12:51:14;;;;;;;8.53;4.67;;;37.40;62.60;;;;;;5030459;28;20124;-74